createdAt,value
2018-12-13T00:01:20.442Z,27.60
2018-12-13T00:03:48.082Z,26.43
2018-12-13T00:06:15.717Z,28.60
2018-12-13T00:08:43.429Z,28.23
2018-12-13T00:11:11.128Z,31.07
2018-12-13T00:13:38.789Z,32.60
2018-12-13T00:16:06.437Z,33.27
2018-12-13T00:18:34.106Z,32.07
2018-12-13T00:21:01.789Z,35.03
2018-12-13T00:23:29.463Z,33.83
2018-12-13T00:25:57.158Z,28.53
2018-12-13T00:28:24.794Z,35.73
2018-12-13T00:30:52.472Z,39.47
2018-12-13T00:33:20.106Z,35.30
2018-12-13T00:35:47.800Z,26.33
2018-12-13T00:38:15.448Z,31.50
2018-12-13T00:40:43.071Z,29.47
2018-12-13T00:43:10.725Z,28.40
2018-12-13T00:45:38.380Z,27.73
2018-12-13T00:48:05.997Z,30.27
2018-12-13T00:50:33.651Z,31.40
2018-12-13T00:53:01.326Z,35.60
2018-12-13T00:55:28.968Z,32.37
2018-12-13T00:57:56.600Z,31.57
2018-12-13T01:00:24.280Z,32.23
2018-12-13T01:02:51.887Z,32.23
2018-12-13T01:05:19.578Z,29.60
2018-12-13T01:07:47.198Z,32.27
2018-12-13T01:10:14.933Z,30.80
2018-12-13T01:12:42.534Z,28.77
2018-12-13T01:15:10.202Z,34.00
2018-12-13T01:17:37.878Z,30.97
2018-12-13T01:20:05.693Z,32.13
2018-12-13T01:22:33.369Z,31.33
2018-12-13T01:25:01.007Z,25.53
2018-12-13T01:27:28.618Z,23.03
2018-12-13T01:29:56.474Z,29.67
2018-12-13T01:32:24.107Z,28.93
2018-12-13T01:34:51.784Z,20.80
2018-12-13T01:37:19.451Z,21.00
2018-12-13T01:39:47.067Z,23.43
2018-12-13T01:42:14.909Z,19.70
2018-12-13T01:44:42.169Z,22.07
2018-12-13T01:47:09.794Z,21.63
2018-12-13T01:49:37.467Z,19.77
2018-12-13T01:52:05.090Z,26.43
2018-12-13T01:54:32.720Z,24.17
2018-12-13T01:57:00.362Z,19.43
2018-12-13T01:59:28.020Z,22.80
2018-12-13T02:01:55.692Z,20.87
2018-12-13T02:04:23.368Z,20.63
2018-12-13T02:06:51.002Z,22.20
2018-12-13T02:09:18.698Z,19.57
2018-12-13T02:11:46.324Z,23.33
2018-12-13T02:14:13.989Z,23.80
2018-12-13T02:16:41.623Z,20.93
2018-12-13T02:19:09.320Z,22.47
2018-12-13T02:21:36.927Z,24.13
2018-12-13T02:24:04.603Z,25.20
2018-12-13T02:26:32.304Z,21.90
2018-12-13T02:28:59.939Z,22.63
2018-12-13T02:31:27.645Z,22.97
2018-12-13T02:33:55.824Z,23.00
2018-12-13T02:36:23.485Z,21.17
2018-12-13T02:38:51.142Z,27.73
2018-12-13T02:43:46.630Z,24.87
2018-12-13T02:46:14.286Z,21.73
2018-12-13T02:48:41.926Z,21.90
2018-12-13T02:51:09.596Z,24.87
2018-12-13T02:53:37.223Z,25.40
2018-12-13T02:56:04.933Z,22.00
2018-12-13T02:58:32.555Z,30.43
2018-12-13T03:01:00.220Z,36.37
2018-12-13T03:03:27.844Z,34.97
2018-12-13T03:05:55.502Z,36.33
2018-12-13T03:08:23.187Z,41.80
2018-12-13T03:10:50.847Z,38.10
2018-12-13T03:13:18.492Z,41.27
2018-12-13T03:15:46.130Z,42.63
2018-12-13T03:18:13.784Z,44.17
2018-12-13T03:20:41.420Z,34.70
2018-12-13T03:23:09.047Z,34.60
2018-12-13T03:25:36.754Z,25.07
2018-12-13T03:28:04.365Z,26.07
2018-12-13T03:30:32.057Z,25.03
2018-12-13T03:32:59.716Z,28.63
2018-12-13T03:35:27.402Z,28.40
2018-12-13T03:37:55.066Z,25.37
2018-12-13T03:40:22.700Z,27.23
2018-12-13T03:42:50.377Z,24.00
2018-12-13T03:45:18.004Z,24.90
2018-12-13T03:47:45.614Z,25.47
2018-12-13T03:50:13.281Z,24.93
2018-12-13T03:52:40.895Z,28.33
2018-12-13T03:55:08.509Z,27.73
2018-12-13T03:57:36.109Z,28.57
2018-12-13T04:00:05.362Z,22.83
2018-12-13T04:02:32.998Z,25.50
2018-12-13T04:05:00.693Z,27.80
2018-12-13T04:07:28.441Z,28.03
2018-12-13T04:09:56.182Z,27.03
2018-12-13T04:12:23.856Z,26.47
2018-12-13T04:14:51.512Z,27.10
2018-12-13T04:17:19.167Z,29.73
2018-12-13T04:19:46.784Z,27.57
2018-12-13T04:22:14.432Z,29.50
2018-12-13T04:24:42.093Z,27.73
2018-12-13T04:27:09.728Z,26.20
2018-12-13T04:29:37.406Z,26.77
2018-12-13T04:32:05.077Z,26.30
2018-12-13T04:34:32.748Z,23.67
2018-12-13T04:37:00.449Z,28.83
2018-12-13T04:39:28.079Z,26.13
2018-12-13T04:41:55.752Z,31.43
2018-12-13T04:44:23.375Z,26.10
2018-12-13T04:46:51.051Z,24.00
2018-12-13T04:49:18.725Z,25.90
2018-12-13T04:51:46.400Z,25.23
2018-12-13T04:54:14.082Z,24.03
2018-12-13T04:56:41.750Z,21.63
2018-12-13T04:59:09.385Z,22.80
2018-12-13T05:01:37.040Z,21.63
2018-12-13T05:04:04.716Z,24.20
2018-12-13T05:06:32.391Z,22.67
2018-12-13T05:09:00.042Z,22.30
2018-12-13T05:11:27.856Z,25.33
2018-12-13T05:13:55.472Z,23.37
2018-12-13T05:16:23.162Z,23.10
2018-12-13T05:18:50.846Z,23.10
2018-12-13T05:21:18.503Z,25.57
2018-12-13T05:23:46.171Z,25.00
2018-12-13T05:26:13.874Z,21.87
2018-12-13T05:28:41.569Z,20.67
2018-12-13T05:31:09.593Z,18.53
2018-12-13T05:33:37.319Z,22.93
2018-12-13T05:36:04.967Z,25.13
2018-12-13T05:38:32.630Z,20.90
2018-12-13T05:41:00.445Z,22.23
2018-12-13T05:43:28.121Z,25.63
2018-12-13T05:45:55.816Z,31.00
2018-12-13T05:48:23.465Z,24.50
2018-12-13T05:50:51.078Z,21.90
2018-12-13T05:53:18.694Z,23.73
2018-12-13T05:55:46.417Z,19.13
2018-12-13T05:58:14.059Z,28.63
2018-12-13T06:00:41.800Z,19.50
2018-12-13T06:03:09.569Z,17.83
2018-12-13T06:05:37.238Z,15.40
2018-12-13T06:08:04.894Z,17.70
2018-12-13T06:10:32.529Z,18.23
2018-12-13T06:13:00.163Z,21.80
2018-12-13T06:15:27.839Z,22.47
2018-12-13T06:17:55.515Z,23.83
2018-12-13T06:20:23.130Z,36.53
2018-12-13T06:22:50.767Z,39.67
2018-12-13T06:25:18.425Z,42.90
2018-12-13T06:27:46.078Z,52.23
2018-12-13T06:30:13.952Z,36.83
2018-12-13T06:32:41.614Z,42.43
2018-12-13T06:35:09.282Z,27.90
2018-12-13T06:37:37.106Z,34.17
2018-12-13T06:40:05.603Z,33.80
2018-12-13T06:42:35.126Z,31.03
2018-12-13T06:45:02.839Z,35.73
2018-12-13T06:47:30.480Z,44.80
2018-12-13T06:50:17.875Z,49.10
2018-12-13T06:52:45.570Z,57.53
2018-12-13T06:55:13.187Z,61.40
2018-12-13T06:57:40.940Z,46.77
2018-12-13T07:00:08.755Z,40.87
2018-12-13T07:02:36.445Z,49.80
2018-12-13T07:05:06.446Z,47.77
2018-12-13T07:07:34.153Z,46.07
2018-12-13T07:10:01.872Z,38.43
2018-12-13T07:12:29.510Z,44.33
2018-12-13T07:14:57.137Z,49.40
2018-12-13T07:17:24.840Z,44.80
2018-12-13T07:19:53.629Z,36.93
2018-12-13T07:22:21.308Z,46.00
2018-12-13T07:24:49.110Z,45.00
2018-12-13T07:27:16.775Z,35.43
2018-12-13T07:29:44.301Z,36.63
2018-12-13T07:32:12.105Z,31.73
2018-12-13T07:34:39.800Z,38.57
2018-12-13T07:37:07.564Z,30.83
2018-12-13T07:39:35.343Z,36.77
2018-12-13T07:42:03.074Z,25.77
2018-12-13T07:44:30.849Z,22.53
2018-12-13T07:46:58.595Z,38.57
2018-12-13T07:49:26.261Z,25.60
2018-12-13T07:51:53.963Z,21.50
2018-12-13T07:54:21.830Z,25.03
2018-12-13T07:56:49.566Z,18.80
2018-12-13T07:59:17.235Z,13.63
2018-12-13T08:01:44.924Z,21.40
2018-12-13T08:04:12.681Z,21.43
2018-12-13T08:06:40.346Z,17.30
2018-12-13T08:09:07.982Z,13.00
2018-12-13T08:11:35.773Z,12.30
2018-12-13T08:14:03.680Z,12.07
2018-12-13T08:16:31.433Z,10.40
2018-12-13T08:18:59.118Z,12.50
2018-12-13T08:21:27.062Z,12.53
2018-12-13T08:23:54.850Z,17.00
2018-12-13T08:26:22.465Z,9.70
2018-12-13T08:28:50.204Z,9.33
2018-12-13T08:31:17.898Z,11.10
2018-12-13T08:33:45.581Z,9.47
2018-12-13T08:36:13.344Z,10.20
2018-12-13T08:38:41.050Z,9.60
2018-12-13T08:41:08.808Z,13.10
2018-12-13T08:43:36.508Z,13.17
2018-12-13T08:46:04.287Z,15.00
2018-12-13T08:48:32.013Z,11.47
2018-12-13T08:50:59.766Z,18.97
2018-12-13T08:53:27.527Z,10.20
2018-12-13T08:55:55.432Z,11.40
2018-12-13T08:58:23.161Z,15.17
2018-12-13T09:00:50.879Z,11.70
2018-12-13T09:03:18.628Z,10.17
2018-12-13T09:05:46.248Z,12.73
2018-12-13T09:08:13.924Z,9.90
2018-12-13T09:10:41.728Z,14.37
2018-12-13T09:13:09.372Z,8.03
2018-12-13T09:15:37.152Z,8.63
2018-12-13T09:18:04.921Z,16.53
2018-12-13T09:20:32.848Z,9.43
2018-12-13T09:23:00.565Z,17.10
2018-12-13T09:25:28.228Z,13.90
2018-12-13T09:27:55.941Z,11.83
2018-12-13T09:30:23.638Z,10.50
2018-12-13T09:32:51.386Z,9.77
2018-12-13T09:35:19.210Z,12.63
2018-12-13T09:37:47.666Z,13.93
2018-12-13T09:40:15.660Z,8.73
2018-12-13T09:42:43.338Z,8.83
2018-12-13T09:45:11.024Z,12.63
2018-12-13T09:47:38.685Z,9.43
2018-12-13T09:50:06.384Z,8.00
2018-12-13T09:52:34.130Z,17.17
2018-12-13T09:55:05.705Z,10.20
2018-12-13T09:57:34.051Z,7.73
2018-12-13T10:00:02.436Z,8.70
2018-12-13T10:02:30.156Z,10.50
2018-12-13T10:04:57.811Z,11.03
2018-12-13T10:07:25.417Z,9.30
2018-12-13T10:09:53.076Z,12.70
2018-12-13T10:12:20.747Z,10.53
2018-12-13T10:14:48.445Z,12.83
2018-12-13T10:17:16.073Z,10.60
2018-12-13T10:19:43.835Z,11.27
2018-12-13T10:22:11.919Z,23.70
2018-12-13T10:24:39.823Z,10.37
2018-12-13T10:27:07.461Z,11.83
2018-12-13T10:29:35.191Z,10.47
2018-12-13T10:32:03.015Z,12.53
2018-12-13T10:34:30.794Z,11.90
2018-12-13T10:36:58.501Z,10.23
2018-12-13T10:39:26.213Z,9.80
2018-12-13T10:41:53.921Z,11.40
2018-12-13T10:44:23.736Z,12.60
2018-12-13T10:46:51.383Z,9.47
2018-12-13T10:49:19.267Z,12.53
2018-12-13T10:51:46.992Z,12.47
2018-12-13T10:54:14.817Z,11.77
2018-12-13T10:56:42.601Z,8.43
2018-12-13T10:59:10.527Z,14.07
2018-12-13T11:01:40.399Z,9.80
2018-12-13T11:04:08.393Z,10.57
2018-12-13T11:06:36.173Z,12.13
2018-12-13T11:09:04.966Z,10.60
2018-12-13T11:11:32.679Z,9.70
2018-12-13T11:14:00.345Z,14.53
2018-12-13T11:16:28.022Z,8.83
2018-12-13T11:18:55.702Z,13.67
2018-12-13T11:21:23.577Z,12.70
2018-12-13T11:23:51.402Z,16.47
2018-12-13T11:26:19.277Z,10.53
2018-12-13T11:28:58.851Z,18.50
2018-12-13T11:31:26.527Z,9.80
2018-12-13T11:33:54.319Z,12.67
2018-12-13T11:36:22.035Z,11.60
2018-12-13T11:38:49.766Z,10.90
2018-12-13T11:41:17.463Z,9.60
2018-12-13T11:43:45.189Z,14.83
2018-12-13T11:46:12.940Z,13.33
2018-12-13T11:48:40.653Z,14.10
2018-12-13T11:51:08.419Z,7.30
2018-12-13T11:53:36.449Z,9.37
2018-12-13T11:56:04.143Z,9.17
2018-12-13T11:58:31.855Z,14.50
2018-12-13T12:00:59.764Z,18.77
2018-12-13T12:03:27.521Z,14.20
2018-12-13T12:05:55.316Z,9.30
2018-12-13T12:08:23.109Z,11.73
2018-12-13T12:10:51.088Z,10.07
2018-12-13T12:13:18.877Z,9.43
2018-12-13T12:15:46.519Z,9.63
2018-12-13T12:18:14.228Z,11.33
2018-12-13T12:20:41.964Z,14.00
2018-12-13T12:23:09.693Z,16.90
2018-12-13T12:25:37.470Z,14.20
2018-12-13T12:28:05.171Z,15.83
2018-12-13T12:30:32.864Z,15.73
2018-12-13T12:33:00.647Z,15.67
2018-12-13T12:35:28.377Z,15.60
2018-12-13T12:37:56.125Z,14.23
2018-12-13T12:40:23.905Z,14.57
2018-12-13T12:42:51.623Z,14.80
2018-12-13T12:45:19.402Z,14.03
2018-12-13T12:47:47.149Z,16.40
2018-12-13T12:50:14.930Z,13.40
2018-12-13T12:52:42.691Z,13.53
2018-12-13T12:55:10.449Z,17.97
2018-12-13T12:57:38.175Z,13.43
2018-12-13T13:00:07.559Z,14.70
2018-12-13T13:02:35.534Z,17.30
2018-12-13T13:05:06.839Z,22.23
2018-12-13T13:07:34.458Z,16.90
2018-12-13T13:10:02.128Z,18.83
2018-12-13T13:12:29.718Z,17.40
2018-12-13T13:14:57.359Z,12.67
2018-12-13T13:17:25.019Z,18.20
2018-12-13T13:19:52.770Z,16.80
2018-12-13T13:22:20.440Z,13.20
2018-12-13T13:24:48.066Z,12.80
2018-12-13T13:27:15.729Z,14.97
2018-12-13T13:29:43.371Z,16.80
2018-12-13T13:32:11.024Z,18.03
2018-12-13T13:34:38.631Z,17.63
2018-12-13T13:37:06.365Z,12.87
2018-12-13T13:39:33.983Z,11.50
2018-12-13T13:42:01.732Z,16.73
2018-12-13T13:44:31.439Z,13.83
2018-12-13T13:46:59.083Z,15.87
2018-12-13T13:49:26.737Z,13.63
2018-12-13T13:51:54.445Z,16.80
2018-12-13T13:54:22.558Z,17.07
2018-12-13T13:56:50.260Z,16.10
2018-12-13T13:59:17.992Z,16.40
2018-12-13T14:01:45.699Z,15.63
2018-12-13T14:04:13.303Z,17.70
2018-12-13T14:06:41.047Z,14.80
2018-12-13T14:09:08.744Z,16.80
2018-12-13T14:11:36.475Z,15.67
2018-12-13T14:14:04.276Z,15.50
2018-12-13T14:16:31.976Z,16.50
2018-12-13T14:18:59.788Z,16.63
2018-12-13T14:21:27.482Z,16.10
2018-12-13T14:23:55.197Z,21.90
2018-12-13T14:26:22.990Z,20.53
2018-12-13T14:28:50.682Z,18.33
2018-12-13T14:31:18.413Z,19.67
2018-12-13T14:33:46.153Z,17.87
2018-12-13T14:36:13.968Z,17.30
2018-12-13T14:38:41.720Z,23.60
2018-12-13T14:41:09.438Z,23.00
2018-12-13T14:43:37.145Z,17.03
2018-12-13T14:46:04.828Z,18.27
2018-12-13T14:48:32.576Z,17.00
2018-12-13T14:51:00.236Z,19.27
2018-12-13T14:53:27.954Z,23.20
2018-12-13T14:55:55.630Z,22.60
2018-12-13T14:58:23.367Z,19.10
2018-12-13T15:00:51.027Z,22.07
2018-12-13T15:03:18.869Z,23.50
2018-12-13T15:05:46.578Z,19.70
2018-12-13T15:08:14.286Z,19.30
2018-12-13T15:10:42.045Z,29.43
2018-12-13T15:13:10.163Z,18.20
2018-12-13T15:15:37.870Z,26.67
2018-12-13T15:18:05.712Z,18.00
2018-12-13T15:20:33.440Z,21.23
2018-12-13T15:23:01.216Z,22.10
2018-12-13T15:25:28.908Z,23.90
2018-12-13T15:27:56.647Z,25.70
2018-12-13T15:30:24.261Z,20.43
2018-12-13T15:32:51.968Z,19.83
2018-12-13T15:35:19.603Z,16.73
2018-12-13T15:37:47.258Z,21.33
2018-12-13T15:40:14.935Z,22.40
2018-12-13T15:42:42.652Z,23.23
2018-12-13T15:45:11.146Z,22.70
2018-12-13T15:47:38.834Z,25.30
2018-12-13T15:50:07.148Z,28.60
2018-12-13T15:52:34.796Z,20.97
2018-12-13T15:55:02.446Z,21.37
2018-12-13T15:57:30.232Z,24.20
2018-12-13T15:59:57.904Z,21.60
2018-12-13T16:02:25.614Z,23.70
2018-12-13T16:04:54.094Z,25.97
2018-12-13T16:07:21.830Z,26.03
2018-12-13T16:09:49.551Z,26.87
2018-12-13T16:12:17.180Z,33.23
2018-12-13T16:14:44.810Z,22.50
2018-12-13T16:17:12.499Z,27.60
2018-12-13T16:19:40.110Z,22.60
2018-12-13T16:22:07.743Z,32.17
2018-12-13T16:24:35.468Z,22.77
2018-12-13T16:27:03.335Z,22.33
2018-12-13T16:29:30.968Z,24.43
2018-12-13T16:31:58.669Z,19.70
2018-12-13T16:34:26.343Z,18.57
2018-12-13T16:36:54.003Z,16.30
2018-12-13T16:39:21.639Z,21.03
2018-12-13T16:41:49.306Z,17.73
2018-12-13T16:44:17.113Z,23.00
2018-12-13T16:46:44.778Z,18.77
2018-12-13T16:49:12.412Z,18.83
2018-12-13T16:51:40.127Z,20.83
2018-12-13T16:54:07.843Z,18.97
2018-12-13T16:56:35.512Z,16.67
2018-12-13T16:59:03.659Z,17.37
2018-12-13T17:01:32.264Z,21.30
2018-12-13T17:03:59.931Z,30.53
2018-12-13T17:06:27.635Z,19.93
2018-12-13T17:08:55.279Z,17.80
2018-12-13T17:11:22.929Z,19.27
2018-12-13T17:13:50.565Z,21.73
2018-12-13T17:16:18.178Z,19.90
2018-12-13T17:18:45.792Z,19.77
2018-12-13T17:21:13.475Z,21.43
2018-12-13T17:23:41.264Z,22.10
2018-12-13T17:26:08.962Z,18.07
2018-12-13T17:28:36.636Z,23.07
2018-12-13T17:31:04.313Z,22.83
2018-12-13T17:33:32.007Z,18.07
2018-12-13T17:35:59.783Z,21.37
2018-12-13T17:38:27.510Z,20.20
2018-12-13T17:40:55.242Z,21.40
2018-12-13T17:43:22.949Z,28.50
2018-12-13T17:45:50.624Z,20.97
2018-12-13T17:48:18.319Z,25.83
2018-12-13T17:50:46.011Z,18.23
2018-12-13T17:53:13.669Z,24.10
2018-12-13T17:55:41.306Z,23.40
2018-12-13T17:58:09.001Z,26.17
2018-12-13T18:00:36.735Z,30.43
2018-12-13T18:03:04.405Z,19.00
2018-12-13T18:05:32.035Z,19.90
2018-12-13T18:07:59.678Z,21.97
2018-12-13T18:10:29.458Z,17.60
2018-12-13T18:12:57.013Z,19.63
2018-12-13T18:15:24.608Z,20.70
2018-12-13T18:17:52.257Z,18.53
2018-12-13T18:20:19.919Z,18.67
2018-12-13T18:22:47.578Z,19.57
2018-12-13T18:25:15.196Z,22.63
2018-12-13T18:27:42.885Z,16.80
2018-12-13T18:30:10.699Z,19.30
2018-12-13T18:32:38.335Z,20.43
2018-12-13T18:35:06.191Z,17.40
2018-12-13T18:37:33.813Z,22.97
2018-12-13T18:40:01.462Z,18.80
2018-12-13T18:42:29.156Z,18.03
2018-12-13T18:44:56.818Z,19.53
2018-12-13T18:47:24.467Z,19.10
2018-12-13T18:49:52.143Z,19.77
2018-12-13T18:52:19.778Z,19.70
2018-12-13T18:54:47.593Z,20.77
2018-12-13T18:57:15.308Z,16.53
2018-12-13T18:59:43.026Z,19.70
2018-12-13T19:02:10.659Z,19.57
2018-12-13T19:04:38.314Z,19.70
2018-12-13T19:07:05.938Z,19.30
2018-12-13T19:09:33.605Z,19.50
2018-12-13T19:12:01.315Z,20.50
2018-12-13T19:14:28.975Z,20.57
2018-12-13T19:19:22.489Z,24.07
2018-12-13T19:21:50.182Z,23.40
2018-12-13T19:24:17.875Z,17.90
2018-12-13T19:26:45.553Z,20.60
2018-12-13T19:29:13.247Z,20.23
2018-12-13T19:31:40.875Z,23.47
2018-12-13T19:34:08.562Z,19.63
2018-12-13T19:36:36.167Z,22.00
2018-12-13T19:39:05.309Z,21.90
2018-12-13T19:41:32.981Z,21.10
2018-12-13T19:44:00.735Z,18.70
2018-12-13T19:46:28.395Z,21.10
2018-12-13T19:48:56.065Z,21.83
2018-12-13T19:51:23.727Z,26.17
2018-12-13T19:53:51.396Z,23.03
2018-12-13T19:56:19.070Z,21.97
2018-12-13T19:58:46.789Z,27.37
2018-12-13T20:01:14.468Z,23.63
2018-12-13T20:03:42.176Z,23.00
2018-12-13T20:06:09.816Z,25.03
2018-12-13T20:08:37.519Z,21.67
2018-12-13T20:11:05.207Z,18.43
2018-12-13T20:13:32.863Z,21.97
2018-12-13T20:16:00.538Z,18.90
2018-12-13T20:18:28.188Z,19.57
2018-12-13T20:20:55.851Z,18.10
2018-12-13T20:23:23.524Z,21.30
2018-12-13T20:25:51.144Z,17.60
2018-12-13T20:28:19.095Z,17.80
2018-12-13T20:30:46.771Z,19.90
2018-12-13T20:33:14.423Z,16.00
2018-12-13T20:35:42.160Z,20.20
2018-12-13T20:38:09.775Z,17.37
2018-12-13T20:40:37.406Z,19.70
2018-12-13T20:43:05.006Z,17.93
2018-12-13T20:45:32.670Z,18.93
2018-12-13T20:48:00.319Z,21.43
2018-12-13T20:50:27.971Z,21.03
2018-12-13T20:52:55.617Z,26.33
2018-12-13T20:55:23.235Z,23.77
2018-12-13T20:57:50.911Z,25.97
2018-12-13T21:00:18.537Z,21.77
2018-12-13T21:05:12.959Z,19.37
2018-12-13T21:07:40.636Z,23.33
2018-12-13T21:10:08.452Z,23.33
2018-12-13T21:12:36.132Z,22.50
2018-12-13T21:15:04.453Z,27.47
2018-12-13T21:17:32.167Z,21.77
2018-12-13T21:19:59.809Z,20.60
2018-12-13T21:22:27.457Z,21.30
2018-12-13T21:24:55.436Z,22.70
2018-12-13T21:27:23.115Z,28.83
2018-12-13T21:29:50.775Z,22.73
2018-12-13T21:32:18.398Z,19.90
2018-12-13T21:34:46.033Z,18.00
2018-12-13T21:37:13.625Z,21.27
2018-12-13T21:39:41.303Z,22.87
2018-12-13T21:42:09.132Z,22.00
2018-12-13T21:44:36.806Z,28.50
2018-12-13T21:47:04.662Z,30.37
2018-12-13T21:49:32.277Z,28.87
2018-12-13T21:51:59.915Z,34.17
2018-12-13T21:54:27.568Z,26.83
2018-12-13T21:56:55.585Z,24.90
2018-12-13T21:59:23.258Z,25.63
2018-12-13T22:01:50.954Z,27.60
2018-12-13T22:04:18.646Z,25.73
2018-12-13T22:06:46.297Z,24.63
2018-12-13T22:09:13.939Z,25.10
2018-12-13T22:11:41.592Z,27.90
2018-12-13T22:14:09.250Z,24.23
2018-12-13T22:16:37.057Z,25.70
2018-12-13T22:19:04.821Z,29.37
2018-12-13T22:21:32.517Z,22.17
2018-12-13T22:24:00.153Z,24.43
2018-12-13T22:26:27.829Z,24.33
2018-12-13T22:28:55.503Z,29.13
2018-12-13T22:31:23.224Z,30.03
2018-12-13T22:33:50.988Z,24.90
2018-12-13T22:36:18.600Z,26.47
2018-12-13T22:38:46.943Z,23.03
2018-12-13T22:41:14.579Z,22.50
2018-12-13T22:43:42.219Z,26.13
2018-12-13T22:46:09.902Z,26.57
2018-12-13T22:48:37.545Z,24.97
2018-12-13T22:51:05.191Z,25.23
2018-12-13T22:53:32.850Z,24.60
2018-12-13T22:56:00.548Z,25.63
2018-12-13T22:58:28.197Z,29.67
2018-12-13T23:00:55.890Z,32.87
2018-12-13T23:03:23.577Z,27.13
2018-12-13T23:05:51.235Z,22.67
2018-12-13T23:08:18.928Z,29.30
2018-12-13T23:10:46.646Z,29.10
2018-12-13T23:13:14.358Z,24.70
2018-12-13T23:15:42.234Z,22.03
2018-12-13T23:18:09.889Z,30.00
2018-12-13T23:20:37.706Z,23.50
2018-12-13T23:23:05.430Z,26.93
2018-12-13T23:25:33.126Z,33.67
2018-12-13T23:28:00.751Z,32.60
2018-12-13T23:30:28.426Z,30.83
2018-12-13T23:32:56.181Z,40.43
2018-12-13T23:35:23.898Z,23.80
2018-12-13T23:37:51.538Z,34.37
2018-12-13T23:40:19.451Z,30.57
2018-12-13T23:42:47.184Z,29.60
2018-12-13T23:45:14.881Z,31.70
2018-12-13T23:47:42.673Z,26.23
2018-12-13T23:50:10.350Z,29.20
2018-12-13T23:52:38.247Z,29.90
2018-12-13T23:55:05.878Z,32.07
2018-12-13T23:57:33.579Z,26.27
